createdAt,value
2017-09-10T00:00:41.765Z,22.43
2017-09-10T00:02:44.271Z,22.42
2017-09-10T00:04:46.711Z,22.41
2017-09-10T00:06:49.277Z,22.39
2017-09-10T00:08:51.863Z,22.42
2017-09-10T00:10:54.402Z,22.39
2017-09-10T00:12:56.845Z,22.41
2017-09-10T00:14:59.393Z,22.38
2017-09-10T00:17:02.118Z,22.36
2017-09-10T00:19:04.604Z,22.37
2017-09-10T00:21:07.085Z,22.42
2017-09-10T00:23:09.560Z,22.40
2017-09-10T00:25:12.044Z,22.41
2017-09-10T00:27:14.557Z,22.40
2017-09-10T00:29:17.029Z,22.41
2017-09-10T00:31:19.645Z,22.42
2017-09-10T00:33:22.191Z,22.42
2017-09-10T00:35:24.637Z,22.41
2017-09-10T00:37:27.110Z,22.40
2017-09-10T00:39:29.645Z,22.36
2017-09-10T00:41:32.112Z,22.36
2017-09-10T00:43:34.824Z,22.36
2017-09-10T00:45:37.418Z,22.36
2017-09-10T00:47:39.851Z,22.36
2017-09-10T00:49:42.329Z,22.35
2017-09-10T00:51:44.986Z,22.33
2017-09-10T00:53:47.437Z,22.34
2017-09-10T00:55:49.882Z,22.36
2017-09-10T00:57:52.596Z,22.37
2017-09-10T00:59:55.136Z,22.37
2017-09-10T01:01:57.587Z,22.31
2017-09-10T01:04:00.097Z,22.32
2017-09-10T01:06:02.528Z,22.31
2017-09-10T01:08:05.045Z,22.32
2017-09-10T01:10:07.556Z,22.33
2017-09-10T01:12:10.040Z,22.35
2017-09-10T01:14:12.613Z,22.33
2017-09-10T01:16:15.108Z,22.32
2017-09-10T01:18:17.552Z,22.32
2017-09-10T01:20:20.008Z,22.33
2017-09-10T01:22:22.525Z,22.33
2017-09-10T01:24:24.958Z,22.31
2017-09-10T01:26:27.395Z,22.31
2017-09-10T01:28:30.010Z,22.30
2017-09-10T01:30:32.500Z,22.28
2017-09-10T01:32:34.956Z,22.29
2017-09-10T01:34:37.445Z,22.27
2017-09-10T01:36:39.972Z,22.20
2017-09-10T01:38:42.411Z,22.22
2017-09-10T01:40:45.034Z,22.24
2017-09-10T01:42:47.544Z,22.26
2017-09-10T01:44:50.009Z,22.28
2017-09-10T01:46:52.599Z,22.29
2017-09-10T01:48:55.152Z,22.29
2017-09-10T01:50:57.640Z,22.25
2017-09-10T01:53:00.312Z,22.21
2017-09-10T01:55:02.776Z,22.24
2017-09-10T01:57:05.235Z,22.23
2017-09-10T01:59:07.708Z,22.26
2017-09-10T02:01:10.181Z,22.27
2017-09-10T02:03:12.615Z,22.26
2017-09-10T02:05:15.208Z,22.27
2017-09-10T02:07:17.681Z,22.26
2017-09-10T02:09:20.230Z,22.24
2017-09-10T02:11:22.856Z,22.24
2017-09-10T02:13:25.426Z,22.25
2017-09-10T02:15:27.900Z,22.25
2017-09-10T02:17:30.372Z,22.26
2017-09-10T02:19:32.832Z,22.23
2017-09-10T02:21:35.461Z,22.22
2017-09-10T02:23:37.963Z,22.25
2017-09-10T02:25:40.532Z,22.23
2017-09-10T02:27:43.077Z,22.25
2017-09-10T02:29:45.561Z,22.26
2017-09-10T02:31:48.123Z,22.22
2017-09-10T02:33:50.614Z,22.24
2017-09-10T02:35:53.164Z,22.25
2017-09-10T02:37:55.656Z,22.25
2017-09-10T02:39:58.112Z,22.25
2017-09-10T02:42:00.612Z,22.26
2017-09-10T02:44:03.093Z,22.24
2017-09-10T02:46:05.590Z,22.24
2017-09-10T02:48:08.092Z,22.24
2017-09-10T02:50:10.718Z,22.24
2017-09-10T02:52:13.153Z,22.23
2017-09-10T02:54:15.814Z,22.23
2017-09-10T02:56:18.384Z,22.20
2017-09-10T02:58:20.862Z,22.19
2017-09-10T03:00:23.318Z,22.19
2017-09-10T03:02:25.825Z,22.11
2017-09-10T03:04:28.331Z,22.12
2017-09-10T03:06:30.788Z,22.08
2017-09-10T03:08:33.303Z,22.13
2017-09-10T03:10:35.736Z,22.14
2017-09-10T03:12:38.212Z,22.06
2017-09-10T03:14:40.728Z,22.08
2017-09-10T03:16:43.290Z,22.08
2017-09-10T03:18:45.859Z,22.02
2017-09-10T03:20:48.470Z,22.01
2017-09-10T03:22:50.999Z,22.03
2017-09-10T03:24:53.583Z,22.02
2017-09-10T03:26:56.044Z,22.04
2017-09-10T03:28:58.632Z,22.06
2017-09-10T03:31:01.144Z,22.04
2017-09-10T03:33:03.588Z,22.00
2017-09-10T03:35:06.129Z,22.06
2017-09-10T03:37:08.701Z,22.06
2017-09-10T03:39:11.288Z,22.08
2017-09-10T03:41:13.727Z,22.04
2017-09-10T03:43:16.189Z,22.02
2017-09-10T03:45:18.630Z,21.97
2017-09-10T03:47:21.142Z,21.97
2017-09-10T03:49:23.646Z,21.98
2017-09-10T03:51:26.101Z,21.92
2017-09-10T03:53:28.801Z,21.91
2017-09-10T03:55:31.642Z,21.95
2017-09-10T03:57:34.344Z,21.98
2017-09-10T03:59:36.808Z,21.93
2017-09-10T04:01:39.393Z,21.97
2017-09-10T04:03:42.147Z,21.95
2017-09-10T04:05:44.638Z,21.93
2017-09-10T04:07:47.256Z,21.93
2017-09-10T04:09:49.758Z,21.93
2017-09-10T04:11:52.274Z,21.89
2017-09-10T04:13:54.740Z,21.87
2017-09-10T04:15:57.276Z,21.88
2017-09-10T04:17:59.844Z,21.83
2017-09-10T04:20:02.393Z,21.80
2017-09-10T04:22:04.942Z,21.79
2017-09-10T04:24:07.433Z,21.77
2017-09-10T04:26:09.931Z,21.75
2017-09-10T04:28:12.608Z,21.79
2017-09-10T04:30:15.183Z,21.75
2017-09-10T04:32:17.663Z,21.77
2017-09-10T04:34:20.124Z,21.77
2017-09-10T04:36:22.591Z,21.79
2017-09-10T04:38:25.140Z,21.79
2017-09-10T04:40:27.656Z,21.85
2017-09-10T04:42:30.144Z,21.85
2017-09-10T04:44:32.649Z,21.89
2017-09-10T04:46:35.083Z,21.93
2017-09-10T04:48:37.615Z,21.90
2017-09-10T04:50:40.181Z,21.85
2017-09-10T04:52:42.632Z,21.85
2017-09-10T04:54:45.102Z,21.77
2017-09-10T04:56:47.661Z,21.77
2017-09-10T04:58:50.122Z,21.74
2017-09-10T05:00:52.639Z,21.71
2017-09-10T05:02:55.213Z,21.77
2017-09-10T05:04:57.787Z,21.77
2017-09-10T05:07:00.235Z,21.76
2017-09-10T05:09:02.704Z,21.76
2017-09-10T05:11:05.268Z,21.76
2017-09-10T05:13:07.818Z,21.76
2017-09-10T05:15:10.443Z,21.78
2017-09-10T05:17:13.025Z,21.82
2017-09-10T05:19:15.484Z,21.84
2017-09-10T05:21:17.980Z,21.87
2017-09-10T05:23:20.481Z,21.90
2017-09-10T05:25:22.954Z,21.88
2017-09-10T05:27:25.444Z,21.85
2017-09-10T05:29:28.043Z,21.88
2017-09-10T05:31:30.551Z,21.83
2017-09-10T05:33:33.089Z,21.85
2017-09-10T05:35:35.521Z,21.90
2017-09-10T05:37:37.980Z,21.91
2017-09-10T05:39:40.536Z,21.90
2017-09-10T05:41:43.128Z,21.89
2017-09-10T05:43:45.697Z,21.93
2017-09-10T05:45:48.225Z,21.91
2017-09-10T05:47:50.747Z,21.96
2017-09-10T05:49:53.195Z,21.95
2017-09-10T05:51:55.724Z,21.97
2017-09-10T05:53:58.163Z,21.94
2017-09-10T05:56:00.600Z,21.94
2017-09-10T05:58:03.311Z,21.95
2017-09-10T06:00:05.786Z,21.96
2017-09-10T06:02:08.324Z,21.94
2017-09-10T06:04:10.809Z,21.95
2017-09-10T06:06:13.292Z,21.99
2017-09-10T06:08:15.819Z,22.01
2017-09-10T06:10:18.368Z,22.03
2017-09-10T06:12:20.881Z,22.05
2017-09-10T06:14:23.408Z,22.05
2017-09-10T06:16:26.015Z,22.07
2017-09-10T06:18:28.464Z,22.11
2017-09-10T06:20:30.919Z,22.09
2017-09-10T06:22:33.396Z,22.12
2017-09-10T06:24:36.003Z,22.19
2017-09-10T06:26:38.548Z,22.23
2017-09-10T06:28:41.109Z,22.18
2017-09-10T06:30:43.687Z,22.13
2017-09-10T06:32:46.156Z,22.17
2017-09-10T06:34:48.703Z,22.11
2017-09-10T06:36:51.259Z,22.12
2017-09-10T06:38:53.709Z,22.15
2017-09-10T06:40:56.337Z,22.12
2017-09-10T06:42:58.832Z,22.14
2017-09-10T06:45:01.383Z,22.13
2017-09-10T06:47:03.884Z,22.09
2017-09-10T06:49:06.375Z,22.09
2017-09-10T06:51:08.942Z,22.12
2017-09-10T06:53:11.500Z,22.06
2017-09-10T06:55:13.947Z,22.03
2017-09-10T06:57:16.413Z,22.05
2017-09-10T06:59:19.021Z,22.04
2017-09-10T07:01:21.539Z,22.03
2017-09-10T07:03:23.997Z,21.97
2017-09-10T07:05:26.502Z,21.94
2017-09-10T07:07:29.013Z,21.96
2017-09-10T07:09:31.475Z,21.99
2017-09-10T07:11:34.053Z,21.96
2017-09-10T07:13:36.522Z,21.95
2017-09-10T07:15:39.080Z,21.94
2017-09-10T07:17:41.598Z,21.98
2017-09-10T07:19:44.117Z,22.00
2017-09-10T07:21:46.592Z,22.04
2017-09-10T07:23:49.048Z,22.08
2017-09-10T07:25:51.498Z,22.16
2017-09-10T07:27:53.945Z,22.08
2017-09-10T07:29:56.407Z,22.14
2017-09-10T07:31:58.841Z,22.10
2017-09-10T07:34:01.279Z,22.04
2017-09-10T07:36:03.781Z,22.08
2017-09-10T07:38:06.388Z,22.11
2017-09-10T07:40:08.856Z,22.12
2017-09-10T07:42:11.537Z,22.10
2017-09-10T07:44:14.049Z,22.17
2017-09-10T07:46:16.655Z,22.18
2017-09-10T07:48:19.145Z,22.19
2017-09-10T07:50:21.660Z,22.19
2017-09-10T07:52:24.131Z,22.21
2017-09-10T07:54:26.596Z,22.13
2017-09-10T07:56:29.064Z,22.20
2017-09-10T07:58:31.504Z,22.21
2017-09-10T08:00:34.100Z,22.21
2017-09-10T08:02:36.649Z,22.17
2017-09-10T08:04:39.130Z,22.05
2017-09-10T08:06:41.664Z,22.04
2017-09-10T08:08:44.166Z,21.98
2017-09-10T08:10:46.815Z,21.90
2017-09-10T08:12:49.272Z,21.98
2017-09-10T08:14:51.869Z,21.97
2017-09-10T08:16:54.386Z,21.87
2017-09-10T08:18:56.885Z,21.92
2017-09-10T08:20:59.398Z,22.03
2017-09-10T08:23:01.896Z,22.04
2017-09-10T08:25:04.364Z,22.12
2017-09-10T08:27:06.956Z,22.10
2017-09-10T08:29:09.413Z,22.11
2017-09-10T08:31:11.896Z,22.10
2017-09-10T08:33:14.583Z,22.11
2017-09-10T08:35:17.129Z,22.12
2017-09-10T08:37:19.585Z,22.09
2017-09-10T08:39:22.013Z,22.14
2017-09-10T08:41:24.469Z,22.20
2017-09-10T08:43:26.929Z,22.25
2017-09-10T08:45:29.412Z,22.26
2017-09-10T08:47:31.950Z,22.32
2017-09-10T08:49:34.524Z,22.30
2017-09-10T08:51:36.964Z,22.29
2017-09-10T08:53:39.467Z,22.39
2017-09-10T08:55:42.004Z,22.38
2017-09-10T08:57:44.488Z,22.37
2017-09-10T08:59:47.016Z,22.36
2017-09-10T09:01:49.781Z,22.41
2017-09-10T09:03:52.327Z,22.49
2017-09-10T09:05:54.790Z,22.50
2017-09-10T09:07:57.254Z,22.52
2017-09-10T09:09:59.731Z,22.47
2017-09-10T09:12:02.206Z,22.58
2017-09-10T09:14:04.713Z,22.61
2017-09-10T09:16:07.247Z,22.60
2017-09-10T09:18:09.713Z,22.50
2017-09-10T09:20:12.226Z,22.53
2017-09-10T09:22:14.697Z,22.51
2017-09-10T09:24:17.128Z,22.43
2017-09-10T09:26:19.642Z,22.49
2017-09-10T09:28:22.099Z,22.42
2017-09-10T09:30:24.586Z,22.45
2017-09-10T09:32:27.065Z,22.45
2017-09-10T09:34:29.539Z,22.46
2017-09-10T09:36:32.153Z,22.54
2017-09-10T09:38:34.619Z,22.57
2017-09-10T09:40:37.091Z,22.66
2017-09-10T09:42:39.575Z,22.71
2017-09-10T09:44:42.108Z,22.65
2017-09-10T09:46:44.572Z,22.64
2017-09-10T09:48:47.401Z,22.64
2017-09-10T09:50:49.869Z,22.74
2017-09-10T09:52:52.309Z,22.81
2017-09-10T09:54:54.856Z,22.78
2017-09-10T09:56:57.376Z,22.79
2017-09-10T09:59:00.760Z,22.75
2017-09-10T10:01:04.156Z,22.66
2017-09-10T10:03:06.748Z,22.65
2017-09-10T10:05:09.234Z,22.44
2017-09-10T10:07:11.705Z,22.46
2017-09-10T10:09:14.173Z,22.64
2017-09-10T10:11:16.621Z,22.76
2017-09-10T10:13:19.101Z,22.81
2017-09-10T10:15:21.625Z,22.66
2017-09-10T10:17:24.172Z,22.58
2017-09-10T10:19:26.619Z,22.58
2017-09-10T10:21:29.167Z,22.66
2017-09-10T10:23:31.718Z,22.71
2017-09-10T10:25:34.177Z,22.69
2017-09-10T10:27:36.671Z,22.59
2017-09-10T10:29:39.106Z,22.61
2017-09-10T10:31:41.617Z,22.72
2017-09-10T10:33:44.131Z,22.74
2017-09-10T10:35:46.656Z,22.81
2017-09-10T10:37:49.136Z,22.84
2017-09-10T10:39:51.673Z,22.84
2017-09-10T10:41:54.186Z,22.87
2017-09-10T10:43:56.626Z,22.83
2017-09-10T10:45:59.087Z,22.90
2017-09-10T10:48:01.564Z,22.87
2017-09-10T10:50:04.003Z,22.87
2017-09-10T10:52:06.454Z,22.98
2017-09-10T10:54:08.913Z,23.02
2017-09-10T10:56:11.391Z,22.93
2017-09-10T10:58:13.985Z,22.98
2017-09-10T11:00:16.431Z,22.99
2017-09-10T11:02:19.030Z,23.01
2017-09-10T11:04:21.707Z,23.00
2017-09-10T11:06:24.187Z,22.97
2017-09-10T11:08:26.656Z,22.97
2017-09-10T11:10:29.381Z,23.05
2017-09-10T11:12:31.919Z,23.03
2017-09-10T11:14:34.612Z,22.99
2017-09-10T11:16:37.158Z,22.98
2017-09-10T11:18:39.626Z,22.94
2017-09-10T11:20:42.071Z,22.97
2017-09-10T11:22:44.697Z,23.01
2017-09-10T11:24:47.203Z,23.01
2017-09-10T11:26:49.676Z,22.92
2017-09-10T11:28:52.176Z,22.97
2017-09-10T11:30:55.012Z,22.95
2017-09-10T11:32:57.509Z,22.99
2017-09-10T11:35:00.072Z,23.00
2017-09-10T11:37:02.605Z,22.92
2017-09-10T11:39:05.065Z,22.94
2017-09-10T11:41:07.620Z,22.90
2017-09-10T11:43:10.124Z,22.89
2017-09-10T11:45:12.593Z,22.85
2017-09-10T11:47:15.201Z,22.90
2017-09-10T11:49:17.764Z,22.87
2017-09-10T11:51:20.304Z,22.99
2017-09-10T11:53:22.761Z,23.01
2017-09-10T11:55:25.196Z,23.00
2017-09-10T11:57:27.644Z,23.02
2017-09-10T11:59:30.110Z,22.97
2017-09-10T12:01:32.640Z,23.03
2017-09-10T12:03:35.100Z,23.06
2017-09-10T12:05:37.626Z,23.02
2017-09-10T12:07:40.098Z,23.07
2017-09-10T12:09:42.564Z,23.05
2017-09-10T12:11:45.088Z,22.98
2017-09-10T12:13:47.591Z,22.91
2017-09-10T12:15:50.064Z,22.97
2017-09-10T12:17:52.537Z,22.98
2017-09-10T12:19:55.003Z,23.06
2017-09-10T12:21:57.479Z,23.04
2017-09-10T12:23:59.937Z,23.04
2017-09-10T12:26:02.443Z,23.02
2017-09-10T12:28:04.981Z,22.90
2017-09-10T12:30:07.445Z,22.92
2017-09-10T12:32:09.924Z,22.96
2017-09-10T12:34:12.477Z,22.99
2017-09-10T12:36:15.013Z,23.00
2017-09-10T12:38:17.527Z,23.07
2017-09-10T12:40:20.003Z,23.08
2017-09-10T12:42:22.486Z,23.10
2017-09-10T12:44:24.946Z,23.03
2017-09-10T12:46:27.420Z,22.99
2017-09-10T12:48:30.050Z,23.00
2017-09-10T12:50:32.556Z,23.04
2017-09-10T12:52:35.159Z,23.08
2017-09-10T12:54:37.645Z,23.07
2017-09-10T12:56:40.162Z,23.11
2017-09-10T12:58:42.652Z,23.00
2017-09-10T13:00:45.156Z,22.98
2017-09-10T13:02:47.620Z,23.02
2017-09-10T13:04:50.767Z,23.08
2017-09-10T13:06:53.457Z,23.11
2017-09-10T13:08:55.887Z,23.15
2017-09-10T13:10:58.484Z,23.16
2017-09-10T13:13:00.961Z,23.12
2017-09-10T13:15:03.403Z,23.09
2017-09-10T13:17:05.852Z,23.08
2017-09-10T13:19:08.313Z,23.08
2017-09-10T13:21:10.819Z,23.03
2017-09-10T13:23:13.544Z,23.11
2017-09-10T13:25:16.068Z,23.08
2017-09-10T13:27:18.541Z,23.13
2017-09-10T13:29:21.022Z,23.10
2017-09-10T13:31:23.608Z,23.11
2017-09-10T13:33:26.061Z,23.03
2017-09-10T13:35:28.510Z,23.11
2017-09-10T13:37:30.968Z,23.13
2017-09-10T13:39:33.453Z,23.09
2017-09-10T13:41:35.889Z,23.11
2017-09-10T13:43:38.360Z,23.08
2017-09-10T13:45:40.834Z,23.09
2017-09-10T13:47:43.336Z,23.07
2017-09-10T13:49:45.965Z,23.07
2017-09-10T13:51:48.512Z,23.07
2017-09-10T13:53:50.982Z,23.02
2017-09-10T13:55:53.536Z,23.12
2017-09-10T13:57:56.064Z,23.03
2017-09-10T13:59:58.519Z,23.09
2017-09-10T14:02:01.055Z,23.06
2017-09-10T14:04:03.601Z,23.09
2017-09-10T14:06:06.242Z,23.12
2017-09-10T14:08:09.112Z,23.14
2017-09-10T14:10:11.544Z,23.13
2017-09-10T14:12:14.064Z,23.18
2017-09-10T14:14:16.629Z,23.15
2017-09-10T14:16:19.108Z,23.16
2017-09-10T14:18:21.637Z,23.17
2017-09-10T14:20:24.320Z,23.13
2017-09-10T14:22:26.826Z,23.17
2017-09-10T14:24:29.289Z,23.20
2017-09-10T14:26:31.785Z,23.19
2017-09-10T14:28:34.308Z,23.18
2017-09-10T14:30:36.749Z,23.20
2017-09-10T14:32:39.299Z,23.19
2017-09-10T14:34:41.745Z,23.15
2017-09-10T14:36:44.514Z,23.12
2017-09-10T14:38:47.178Z,23.14
2017-09-10T14:40:49.693Z,23.18
2017-09-10T14:42:52.201Z,23.17
2017-09-10T14:44:54.843Z,23.13
2017-09-10T14:46:57.451Z,23.05
2017-09-10T14:49:00.072Z,22.99
2017-09-10T14:51:02.533Z,23.03
2017-09-10T14:53:05.168Z,23.00
2017-09-10T14:55:07.644Z,23.01
2017-09-10T14:57:10.113Z,23.04
2017-09-10T14:59:12.612Z,22.98
2017-09-10T15:01:15.231Z,23.03
2017-09-10T15:03:17.689Z,22.94
2017-09-10T15:05:20.136Z,23.01
2017-09-10T15:07:22.642Z,23.03
2017-09-10T15:09:25.165Z,23.04
2017-09-10T15:11:27.601Z,23.08
2017-09-10T15:13:30.100Z,23.06
2017-09-10T15:15:32.570Z,23.06
2017-09-10T15:17:35.118Z,23.01
2017-09-10T15:19:37.573Z,23.08
2017-09-10T15:21:40.088Z,23.05
2017-09-10T15:23:42.629Z,23.06
2017-09-10T15:25:45.207Z,23.09
2017-09-10T15:27:47.775Z,22.98
2017-09-10T15:29:50.232Z,23.04
2017-09-10T15:31:52.668Z,23.00
2017-09-10T15:33:55.164Z,23.03
2017-09-10T15:35:57.656Z,22.97
2017-09-10T15:38:00.209Z,22.89
2017-09-10T15:40:02.804Z,22.97
2017-09-10T15:42:05.284Z,22.98
2017-09-10T15:44:07.789Z,22.97
2017-09-10T15:46:10.376Z,23.00
2017-09-10T15:48:12.799Z,22.98
2017-09-10T15:50:15.375Z,22.98
2017-09-10T15:52:17.873Z,22.97
2017-09-10T15:54:20.398Z,22.90
2017-09-10T15:56:22.850Z,22.88
2017-09-10T15:58:25.409Z,22.90
2017-09-10T16:00:27.914Z,22.90
2017-09-10T16:02:30.442Z,22.95
2017-09-10T16:04:33.057Z,22.87
2017-09-10T16:06:35.544Z,22.80
2017-09-10T16:08:38.058Z,22.86
2017-09-10T16:10:40.716Z,22.89
2017-09-10T16:12:43.154Z,22.87
2017-09-10T16:14:45.599Z,22.84
2017-09-10T16:16:48.108Z,22.89
2017-09-10T16:18:50.614Z,22.88
2017-09-10T16:20:53.059Z,22.92
2017-09-10T16:22:55.561Z,22.78
2017-09-10T16:24:58.116Z,22.71
2017-09-10T16:27:00.701Z,22.71
2017-09-10T16:29:03.211Z,22.77
2017-09-10T16:31:05.708Z,22.76
2017-09-10T16:33:08.157Z,22.74
2017-09-10T16:35:10.654Z,22.77
2017-09-10T16:37:13.183Z,22.76
2017-09-10T16:39:15.703Z,22.68
2017-09-10T16:41:18.238Z,22.75
2017-09-10T16:43:20.713Z,22.66
2017-09-10T16:45:23.202Z,22.77
2017-09-10T16:47:25.676Z,22.73
2017-09-10T16:49:28.136Z,22.80
2017-09-10T16:51:30.568Z,22.77
2017-09-10T16:53:33.097Z,22.73
2017-09-10T16:55:35.530Z,22.63
2017-09-10T16:57:38.062Z,22.69
2017-09-10T16:59:40.524Z,22.69
2017-09-10T17:01:43.059Z,22.67
2017-09-10T17:03:45.504Z,22.69
2017-09-10T17:05:47.964Z,22.71
2017-09-10T17:07:50.494Z,22.69
2017-09-10T17:09:53.022Z,22.69
2017-09-10T17:11:55.613Z,22.69
2017-09-10T17:13:58.087Z,22.70
2017-09-10T17:16:00.520Z,22.71
2017-09-10T17:18:03.015Z,22.73
2017-09-10T17:20:05.478Z,22.74
2017-09-10T17:22:07.926Z,22.76
2017-09-10T17:24:10.515Z,22.76
2017-09-10T17:26:12.960Z,22.78
2017-09-10T17:28:15.501Z,22.65
2017-09-10T17:30:17.973Z,22.58
2017-09-10T17:32:20.573Z,22.61
2017-09-10T17:34:23.010Z,22.61
2017-09-10T17:36:25.765Z,22.61
2017-09-10T17:38:28.219Z,22.53
2017-09-10T17:40:30.752Z,22.59
2017-09-10T17:42:33.262Z,22.60
2017-09-10T17:44:35.700Z,22.59
2017-09-10T17:46:38.155Z,22.56
2017-09-10T17:48:40.672Z,22.56
2017-09-10T17:50:43.245Z,22.51
2017-09-10T17:52:45.713Z,22.50
2017-09-10T17:54:48.169Z,22.49
2017-09-10T17:56:50.685Z,22.48
2017-09-10T17:58:53.229Z,22.51
2017-09-10T18:00:55.716Z,22.52
2017-09-10T18:02:58.157Z,22.40
2017-09-10T18:05:00.605Z,22.43
2017-09-10T18:07:03.341Z,22.31
2017-09-10T18:09:05.802Z,22.38
2017-09-10T18:11:08.234Z,22.34
2017-09-10T18:13:10.767Z,22.31
2017-09-10T18:15:13.213Z,22.30
2017-09-10T18:17:15.647Z,22.27
2017-09-10T18:19:18.264Z,22.22
2017-09-10T18:21:20.746Z,22.26
2017-09-10T18:23:23.278Z,22.21
2017-09-10T18:25:25.752Z,22.22
2017-09-10T18:27:28.188Z,22.28
2017-09-10T18:29:30.697Z,22.24
2017-09-10T18:31:33.152Z,22.22
2017-09-10T18:33:35.594Z,22.11
2017-09-10T18:35:38.024Z,22.15
2017-09-10T18:37:40.492Z,22.20
2017-09-10T18:39:43.149Z,22.12
2017-09-10T18:41:45.653Z,22.09
2017-09-10T18:43:48.712Z,22.19
2017-09-10T18:45:51.302Z,22.13
2017-09-10T18:47:53.772Z,22.14
2017-09-10T18:49:56.633Z,22.17
2017-09-10T18:51:59.202Z,22.19
2017-09-10T18:54:01.732Z,22.13
2017-09-10T18:56:04.203Z,22.19
2017-09-10T18:58:06.657Z,22.22
2017-09-10T19:00:09.096Z,22.17
2017-09-10T19:02:11.755Z,22.11
2017-09-10T19:04:14.456Z,22.09
2017-09-10T19:06:16.906Z,22.09
2017-09-10T19:08:19.361Z,22.09
2017-09-10T19:10:21.900Z,22.14
2017-09-10T19:12:24.332Z,22.10
2017-09-10T19:14:26.986Z,22.16
2017-09-10T19:16:29.483Z,22.21
2017-09-10T19:18:32.013Z,22.19
2017-09-10T19:20:34.471Z,21.99
2017-09-10T19:22:37.060Z,21.91
2017-09-10T19:24:39.535Z,21.95
2017-09-10T19:26:42.002Z,21.98
2017-09-10T19:28:44.517Z,21.94
2017-09-10T19:30:46.953Z,21.95
2017-09-10T19:32:49.546Z,21.93
2017-09-10T19:34:52.167Z,21.99
2017-09-10T19:36:54.628Z,21.96
2017-09-10T19:38:57.185Z,21.94
2017-09-10T19:40:59.710Z,22.00
2017-09-10T19:43:02.287Z,22.05
2017-09-10T19:45:04.763Z,22.10
2017-09-10T19:47:07.326Z,22.09
2017-09-10T19:49:09.770Z,22.14
2017-09-10T19:51:12.355Z,22.10
2017-09-10T19:53:15.046Z,22.10
2017-09-10T19:55:17.494Z,22.07
2017-09-10T19:57:20.148Z,22.08
2017-09-10T19:59:22.655Z,22.09
2017-09-10T20:01:25.156Z,22.10
2017-09-10T20:03:27.667Z,22.08
2017-09-10T20:05:30.114Z,22.08
2017-09-10T20:07:32.639Z,22.08
2017-09-10T20:09:35.171Z,21.97
2017-09-10T20:11:37.683Z,21.96
2017-09-10T20:13:40.124Z,21.88
2017-09-10T20:15:42.678Z,21.95
2017-09-10T20:17:45.166Z,21.97
2017-09-10T20:19:47.605Z,21.99
2017-09-10T20:21:50.065Z,21.95
2017-09-10T20:23:52.720Z,21.88
2017-09-10T20:25:55.237Z,21.90
2017-09-10T20:27:57.770Z,21.82
2017-09-10T20:30:00.232Z,21.91
2017-09-10T20:32:02.685Z,21.83
2017-09-10T20:34:05.206Z,21.78
2017-09-10T20:36:07.661Z,21.82
2017-09-10T20:38:10.234Z,21.85
2017-09-10T20:40:12.705Z,21.77
2017-09-10T20:42:15.133Z,21.82
2017-09-10T20:44:17.658Z,21.87
2017-09-10T20:46:20.167Z,21.87
2017-09-10T20:48:22.765Z,21.84
2017-09-10T20:50:25.205Z,21.83
2017-09-10T20:52:27.701Z,21.85
2017-09-10T20:54:30.180Z,21.79
2017-09-10T20:56:32.683Z,21.76
2017-09-10T20:58:35.163Z,21.86
2017-09-10T21:00:37.604Z,21.88
2017-09-10T21:02:40.112Z,21.89
2017-09-10T21:04:42.610Z,21.85
2017-09-10T21:06:45.299Z,21.93
2017-09-10T21:08:47.790Z,21.87
2017-09-10T21:10:50.547Z,21.85
2017-09-10T21:12:53.093Z,21.75
2017-09-10T21:14:55.553Z,21.73
2017-09-10T21:16:58.101Z,21.74
2017-09-10T21:19:00.632Z,21.76
2017-09-10T21:21:03.103Z,21.77
2017-09-10T21:23:05.574Z,21.73
2017-09-10T21:25:08.072Z,21.74
2017-09-10T21:27:10.553Z,21.58
2017-09-10T21:29:13.015Z,21.65
2017-09-10T21:31:15.465Z,21.62
2017-09-10T21:33:17.917Z,21.65
2017-09-10T21:35:20.413Z,21.70
2017-09-10T21:37:22.840Z,21.74
2017-09-10T21:39:25.399Z,21.70
2017-09-10T21:41:27.854Z,21.76
2017-09-10T21:43:30.282Z,21.83
2017-09-10T21:45:32.748Z,21.85
2017-09-10T21:47:35.208Z,21.77
2017-09-10T21:49:37.760Z,21.68
2017-09-10T21:51:40.272Z,21.68
2017-09-10T21:53:42.737Z,21.67
2017-09-10T21:55:45.223Z,21.63
2017-09-10T21:57:47.704Z,21.59
2017-09-10T21:59:50.245Z,21.56
2017-09-10T22:01:52.759Z,21.58
2017-09-10T22:03:55.287Z,21.51
2017-09-10T22:05:57.856Z,21.56
2017-09-10T22:08:00.380Z,21.52
2017-09-10T22:10:02.862Z,21.62
2017-09-10T22:12:05.362Z,21.58
2017-09-10T22:14:07.841Z,21.59
2017-09-10T22:16:10.353Z,21.54
2017-09-10T22:18:13.009Z,21.49
2017-09-10T22:20:15.468Z,21.56
2017-09-10T22:22:17.968Z,21.43
2017-09-10T22:24:20.446Z,21.41
2017-09-10T22:26:22.911Z,21.46
2017-09-10T22:28:55.970Z,21.48
2017-09-10T22:30:58.484Z,21.37
2017-09-10T22:33:00.993Z,21.40
2017-09-10T22:35:03.422Z,21.43
2017-09-10T22:37:05.908Z,21.45
2017-09-10T22:39:08.336Z,21.49
2017-09-10T22:41:10.810Z,21.50
2017-09-10T22:43:13.276Z,21.46
2017-09-10T22:45:15.814Z,21.48
2017-09-10T22:47:18.285Z,21.34
2017-09-10T22:49:20.750Z,21.41
2017-09-10T22:51:23.188Z,21.47
2017-09-10T22:53:25.629Z,21.55
2017-09-10T22:55:28.117Z,21.54
2017-09-10T22:57:30.563Z,21.32
2017-09-10T22:59:33.020Z,21.39
2017-09-10T23:01:35.508Z,21.41
2017-09-10T23:03:38.088Z,21.39
2017-09-10T23:05:40.617Z,21.41
2017-09-10T23:07:43.072Z,21.46
2017-09-10T23:09:45.619Z,21.36
2017-09-10T23:11:48.061Z,21.37
2017-09-10T23:13:50.542Z,21.44
2017-09-10T23:15:53.073Z,21.37
2017-09-10T23:17:55.510Z,21.35
2017-09-10T23:19:58.153Z,21.44
2017-09-10T23:22:00.644Z,21.35
2017-09-10T23:24:03.068Z,21.39
2017-09-10T23:26:06.759Z,21.38
2017-09-10T23:28:09.254Z,21.28
2017-09-10T23:30:11.760Z,21.34
2017-09-10T23:32:14.369Z,21.36
2017-09-10T23:34:16.945Z,21.37
2017-09-10T23:36:19.372Z,21.39
2017-09-10T23:38:21.879Z,21.36
2017-09-10T23:40:24.437Z,21.43
2017-09-10T23:42:26.876Z,21.47
2017-09-10T23:44:29.392Z,21.49
2017-09-10T23:46:31.823Z,21.47
2017-09-10T23:48:34.248Z,21.53
2017-09-10T23:50:36.806Z,21.58
2017-09-10T23:52:39.293Z,21.68
2017-09-10T23:54:41.733Z,21.69
2017-09-10T23:56:44.222Z,21.59
2017-09-10T23:58:46.726Z,21.55
